createdAt,value
2023-03-20T08:00:09.307Z,9.06
2023-03-20T08:31:41.588Z,9.52
2023-03-20T08:43:41.987Z,9.76
2023-03-20T08:47:35.435Z,9.91
2023-03-20T08:51:07.303Z,10.07
2023-03-20T08:54:56.248Z,10.14
2023-03-20T08:58:06.446Z,10.52
2023-03-20T09:01:41.813Z,11.04
2023-03-20T09:05:35.071Z,11.13
2023-03-20T09:08:48.504Z,11.22
2023-03-20T09:12:02.766Z,11.48
2023-03-20T09:15:31.342Z,11.67
2023-03-20T09:18:44.170Z,11.55
2023-03-20T09:22:12.961Z,11.45
2023-03-20T09:33:24.790Z,11.00
2023-03-20T09:37:40.204Z,11.06
2023-03-20T09:41:33.945Z,10.80
2023-03-20T09:49:20.418Z,10.99
2023-03-20T09:52:48.393Z,11.02
2023-03-20T09:56:45.530Z,11.05
2023-03-20T10:00:01.553Z,11.30
2023-03-20T10:03:16.022Z,11.59
2023-03-20T10:06:34.640Z,11.82
2023-03-20T10:09:57.845Z,11.67
2023-03-20T10:13:44.291Z,11.65
2023-03-20T10:17:07.199Z,11.76
2023-03-20T10:24:12.032Z,11.61
2023-03-20T10:27:35.309Z,11.63
2023-03-20T10:31:05.303Z,11.49
2023-03-20T10:34:43.239Z,11.43
2023-03-20T10:38:19.232Z,11.39
2023-03-20T10:41:48.260Z,11.83
2023-03-20T10:45:13.831Z,12.17
2023-03-20T10:48:45.484Z,12.62
2023-03-20T10:52:10.328Z,12.82
2023-03-20T10:55:42.889Z,12.54
2023-03-20T10:59:04.825Z,12.26
2023-03-20T11:02:18.646Z,12.12
2023-03-20T11:05:41.520Z,12.07
2023-03-20T11:12:20.249Z,12.05
2023-03-20T11:15:40.276Z,11.84
2023-03-20T11:19:06.664Z,11.54
2023-03-20T11:22:41.191Z,11.55
2023-03-20T11:25:57.828Z,11.42
2023-03-20T11:32:54.971Z,11.32
2023-03-20T11:36:17.159Z,11.33
2023-03-20T11:39:28.521Z,11.32
2023-03-20T11:42:55.050Z,11.28
2023-03-20T11:46:34.284Z,11.17
2023-03-20T11:50:24.079Z,11.26
2023-03-20T11:54:34.585Z,11.32
2023-03-20T11:58:30.269Z,11.34
2023-03-20T12:01:47.220Z,11.37
2023-03-20T12:04:59.826Z,11.21
2023-03-20T12:08:24.732Z,11.21
2023-03-20T12:11:52.437Z,11.17
2023-03-20T12:15:32.159Z,11.16
2023-03-20T12:18:49.704Z,11.26
2023-03-20T12:25:58.687Z,11.28
2023-03-20T12:29:15.129Z,11.86
2023-03-20T12:32:31.633Z,11.82
2023-03-20T12:35:57.285Z,11.77
2023-03-20T12:39:42.402Z,11.54
2023-03-20T12:43:10.327Z,11.53
2023-03-20T12:46:50.417Z,11.51
2023-03-20T12:50:22.463Z,11.13
2023-03-20T12:53:43.303Z,11.10
2023-03-20T12:57:15.155Z,11.12
2023-03-20T13:01:05.608Z,11.21
2023-03-20T13:04:44.591Z,11.33
2023-03-20T13:08:17.813Z,11.31
2023-03-20T13:18:01.786Z,10.85
2023-03-20T13:30:18.136Z,10.99
2023-03-20T14:02:25.510Z,10.90
2023-03-20T14:08:50.172Z,11.13
2023-03-20T14:12:08.685Z,11.47
2023-03-20T14:15:38.220Z,11.39
2023-03-20T14:22:56.489Z,11.22
2023-03-20T14:26:29.251Z,11.13
2023-03-20T14:48:18.670Z,10.65
